Milledgeville, Tennessee
Current Conditions -  °F | °C
As of 7:35 PM on Monday 22 Dec 2014 (Local Time) from KSNH Reporting Station
Overcast Overcast  
Wind Chill: 52°   Ceiling: 500
Heat Index: 52°   Visibility: 4mi
Dew Point: 52°   Wind: 7mph
Humidity: 100%   Direction: 160°SSE
Pressure: 29.7"   Gusts: NA
Location:  35.37°N, 88.37°W
Report Text: KSNH 230135Z AUTO 16006KT 4SM OVC005 11/11 A2970 RMK
Loading
Personal Weather Stations






























Interactive Weather Map New forecast layout! Learn more

10-Day Weather Forecast

Advertisements
Track Severe Weather on mobile